sensor_id;sensor_type;location;lat;lon;timestamp;pressure;altitude;pressure_sealevel;temperature;humidity
57827;BME280;43656;57.746;11.780;2023-04-08T00:00:55;102724.16;;;9.22;50.13
57827;BME280;43656;57.746;11.780;2023-04-08T00:03:21;102710.19;;;9.18;50.52
57827;BME280;43656;57.746;11.780;2023-04-08T00:05:46;102717.94;;;9.22;50.75
57827;BME280;43656;57.746;11.780;2023-04-08T00:08:11;102716.66;;;9.16;51.52
57827;BME280;43656;57.746;11.780;2023-04-08T00:10:37;102705.81;;;9.08;51.39
57827;BME280;43656;57.746;11.780;2023-04-08T00:13:03;102704.97;;;8.98;51.56
57827;BME280;43656;57.746;11.780;2023-04-08T00:15:28;102698.44;;;9.00;51.58
57827;BME280;43656;57.746;11.780;2023-04-08T00:17:54;102701.41;;;8.97;51.68
57827;BME280;43656;57.746;11.780;2023-04-08T00:20:22;102705.66;;;9.00;51.90
57827;BME280;43656;57.746;11.780;2023-04-08T00:22:48;102695.34;;;8.95;52.25
57827;BME280;43656;57.746;11.780;2023-04-08T00:25:13;102691.66;;;8.86;52.53
57827;BME280;43656;57.746;11.780;2023-04-08T00:27:39;102697.03;;;8.86;52.87
57827;BME280;43656;57.746;11.780;2023-04-08T00:30:05;102699.59;;;9.07;51.95
57827;BME280;43656;57.746;11.780;2023-04-08T00:32:30;102703.13;;;9.08;51.91
57827;BME280;43656;57.746;11.780;2023-04-08T00:34:57;102714.13;;;9.24;51.17
57827;BME280;43656;57.746;11.780;2023-04-08T00:37:22;102713.13;;;9.25;51.87
57827;BME280;43656;57.746;11.780;2023-04-08T00:39:49;102691.66;;;9.06;51.93
57827;BME280;43656;57.746;11.780;2023-04-08T00:42:14;102697.75;;;8.98;52.74
57827;BME280;43656;57.746;11.780;2023-04-08T00:44:40;102717.25;;;9.00;53.32
57827;BME280;43656;57.746;11.780;2023-04-08T00:47:05;102716.28;;;9.11;52.54
57827;BME280;43656;57.746;11.780;2023-04-08T00:49:31;102690.53;;;8.79;53.29
57827;BME280;43656;57.746;11.780;2023-04-08T00:51:58;102705.53;;;8.91;52.71
57827;BME280;43656;57.746;11.780;2023-04-08T00:54:23;102716.84;;;9.05;51.97
57827;BME280;43656;57.746;11.780;2023-04-08T00:56:49;102714.25;;;9.13;52.52
57827;BME280;43656;57.746;11.780;2023-04-08T00:59:16;102716.84;;;9.05;52.31
57827;BME280;43656;57.746;11.780;2023-04-08T01:07:17;102698.59;;;8.79;52.35
57827;BME280;43656;57.746;11.780;2023-04-08T01:09:48;102714.88;;;8.87;52.18
57827;BME280;43656;57.746;11.780;2023-04-08T01:12:24;102711.03;;;9.00;52.01
57827;BME280;43656;57.746;11.780;2023-04-08T01:14:56;102715.00;;;8.96;51.99
57827;BME280;43656;57.746;11.780;2023-04-08T01:17:23;102718.69;;;8.94;51.94
57827;BME280;43656;57.746;11.780;2023-04-08T01:19:49;102713.97;;;8.77;52.63
57827;BME280;43656;57.746;11.780;2023-04-08T01:22:24;102719.78;;;9.11;51.53
57827;BME280;43656;57.746;11.780;2023-04-08T01:24:58;102713.31;;;9.04;51.35
57827;BME280;43656;57.746;11.780;2023-04-08T01:27:27;102687.88;;;8.89;51.84
57827;BME280;43656;57.746;11.780;2023-04-08T01:29:55;102723.59;;;9.09;51.98
57827;BME280;43656;57.746;11.780;2023-04-08T01:32:23;102718.97;;;9.01;52.38
57827;BME280;43656;57.746;11.780;2023-04-08T01:34:49;102713.44;;;8.83;52.97
57827;BME280;43656;57.746;11.780;2023-04-08T01:37:15;102726.00;;;8.73;52.98
57827;BME280;43656;57.746;11.780;2023-04-08T01:39:42;102716.53;;;8.69;53.39
57827;BME280;43656;57.746;11.780;2023-04-08T01:42:09;102724.56;;;8.59;53.65
57827;BME280;43656;57.746;11.780;2023-04-08T01:44:35;102724.44;;;8.51;53.86
57827;BME280;43656;57.746;11.780;2023-04-08T01:47:02;102718.63;;;8.56;54.25
57827;BME280;43656;57.746;11.780;2023-04-08T01:49:28;102719.34;;;8.58;53.07
57827;BME280;43656;57.746;11.780;2023-04-08T01:51:56;102736.03;;;8.71;53.08
57827;BME280;43656;57.746;11.780;2023-04-08T01:54:23;102735.34;;;8.79;52.84
57827;BME280;43656;57.746;11.780;2023-04-08T01:56:50;102733.66;;;8.87;52.90
57827;BME280;43656;57.746;11.780;2023-04-08T01:59:17;102728.00;;;8.71;53.20
57827;BME280;43656;57.746;11.780;2023-04-08T02:01:46;102736.34;;;8.78;52.90
57827;BME280;43656;57.746;11.780;2023-04-08T02:04:12;102732.50;;;8.80;52.56
57827;BME280;43656;57.746;11.780;2023-04-08T02:06:37;102742.94;;;8.83;53.23
57827;BME280;43656;57.746;11.780;2023-04-08T02:09:03;102750.13;;;8.63;54.05
57827;BME280;43656;57.746;11.780;2023-04-08T02:11:30;102748.47;;;8.72;53.45
57827;BME280;43656;57.746;11.780;2023-04-08T02:13:56;102724.56;;;8.50;53.89
57827;BME280;43656;57.746;11.780;2023-04-08T02:16:33;102747.44;;;8.63;53.70
57827;BME280;43656;57.746;11.780;2023-04-08T02:19:09;102746.50;;;8.74;53.19
57827;BME280;43656;57.746;11.780;2023-04-08T02:21:51;102739.56;;;8.62;53.71
57827;BME280;43656;57.746;11.780;2023-04-08T02:24:20;102761.59;;;8.65;54.17
57827;BME280;43656;57.746;11.780;2023-04-08T02:26:48;102733.94;;;8.34;54.52
57827;BME280;43656;57.746;11.780;2023-04-08T02:29:16;102757.47;;;8.52;54.23
57827;BME280;43656;57.746;11.780;2023-04-08T02:31:43;102738.16;;;8.27;54.95
57827;BME280;43656;57.746;11.780;2023-04-08T02:34:09;102754.75;;;8.42;55.06
57827;BME280;43656;57.746;11.780;2023-04-08T02:36:35;102757.31;;;8.53;54.55
57827;BME280;43656;57.746;11.780;2023-04-08T02:39:04;102756.19;;;8.46;55.11
57827;BME280;43656;57.746;11.780;2023-04-08T02:41:30;102749.91;;;8.36;55.66
57827;BME280;43656;57.746;11.780;2023-04-08T02:43:55;102754.50;;;8.45;55.66
57827;BME280;43656;57.746;11.780;2023-04-08T02:46:21;102756.06;;;8.57;55.00
57827;BME280;43656;57.746;11.780;2023-04-08T02:48:46;102751.84;;;8.24;56.45
57827;BME280;43656;57.746;11.780;2023-04-08T02:51:12;102757.06;;;8.26;55.95
57827;BME280;43656;57.746;11.780;2023-04-08T02:53:37;102767.09;;;8.23;56.00
57827;BME280;43656;57.746;11.780;2023-04-08T02:56:03;102759.88;;;8.24;56.47
57827;BME280;43656;57.746;11.780;2023-04-08T02:58:28;102741.00;;;8.26;55.76
57827;BME280;43656;57.746;11.780;2023-04-08T03:00:54;102766.69;;;8.68;55.23
57827;BME280;43656;57.746;11.780;2023-04-08T03:03:20;102743.47;;;8.48;55.11
57827;BME280;43656;57.746;11.780;2023-04-08T03:05:52;102761.44;;;8.67;55.27
57827;BME280;43656;57.746;11.780;2023-04-08T03:08:18;102766.19;;;8.44;56.48
57827;BME280;43656;57.746;11.780;2023-04-08T03:10:43;102742.38;;;8.20;56.60
57827;BME280;43656;57.746;11.780;2023-04-08T03:13:09;102772.63;;;8.32;56.63
57827;BME280;43656;57.746;11.780;2023-04-08T03:15:34;102766.75;;;8.38;56.57
57827;BME280;43656;57.746;11.780;2023-04-08T03:18:00;102771.13;;;8.39;56.93
57827;BME280;43656;57.746;11.780;2023-04-08T03:20:25;102775.50;;;8.40;57.26
57827;BME280;43656;57.746;11.780;2023-04-08T03:22:51;102772.72;;;8.51;56.15
57827;BME280;43656;57.746;11.780;2023-04-08T03:25:16;102775.75;;;8.37;57.63
57827;BME280;43656;57.746;11.780;2023-04-08T03:27:42;102771.44;;;8.45;57.09
57827;BME280;43656;57.746;11.780;2023-04-08T03:30:10;102773.16;;;8.66;56.18
57827;BME280;43656;57.746;11.780;2023-04-08T03:32:36;102771.47;;;8.65;56.53
57827;BME280;43656;57.746;11.780;2023-04-08T03:35:01;102757.38;;;8.32;57.02
57827;BME280;43656;57.746;11.780;2023-04-08T03:37:26;102772.69;;;8.41;57.98
57827;BME280;43656;57.746;11.780;2023-04-08T03:39:54;102770.88;;;8.52;57.10
57827;BME280;43656;57.746;11.780;2023-04-08T03:42:19;102766.19;;;8.44;57.33
57827;BME280;43656;57.746;11.780;2023-04-08T03:44:45;102763.56;;;8.23;57.71
57827;BME280;43656;57.746;11.780;2023-04-08T03:47:10;102770.19;;;8.19;58.13
57827;BME280;43656;57.746;11.780;2023-04-08T03:49:36;102764.66;;;8.20;58.22
57827;BME280;43656;57.746;11.780;2023-04-08T03:52:01;102769.41;;;8.07;58.98
57827;BME280;43656;57.746;11.780;2023-04-08T03:54:27;102753.47;;;7.75;60.09
57827;BME280;43656;57.746;11.780;2023-04-08T03:56:52;102761.78;;;7.72;60.72
57827;BME280;43656;57.746;11.780;2023-04-08T03:59:17;102757.53;;;7.69;60.65
57827;BME280;43656;57.746;11.780;2023-04-08T04:01:43;102763.00;;;7.68;61.07
57827;BME280;43656;57.746;11.780;2023-04-08T04:04:08;102762.41;;;7.64;61.15
57827;BME280;43656;57.746;11.780;2023-04-08T04:06:34;102759.41;;;7.58;61.25
57827;BME280;43656;57.746;11.780;2023-04-08T04:08:59;102752.91;;;7.81;60.51
57827;BME280;43656;57.746;11.780;2023-04-08T04:11:24;102745.81;;;7.70;61.32
57827;BME280;43656;57.746;11.780;2023-04-08T04:13:50;102756.22;;;7.85;60.44
57827;BME280;43656;57.746;11.780;2023-04-08T04:16:15;102738.72;;;7.90;59.94
57827;BME280;43656;57.746;11.780;2023-04-08T04:18:41;102752.88;;;7.71;60.93
57827;BME280;43656;57.746;11.780;2023-04-08T04:21:06;102765.47;;;8.02;59.89
57827;BME280;43656;57.746;11.780;2023-04-08T04:23:32;102764.59;;;8.01;60.50
57827;BME280;43656;57.746;11.780;2023-04-08T04:25:57;102764.78;;;8.09;60.23
57827;BME280;43656;57.746;11.780;2023-04-08T04:28:23;102756.72;;;8.09;59.40
57827;BME280;43656;57.746;11.780;2023-04-08T04:30:48;102751.13;;;8.22;59.11
57827;BME280;43656;57.746;11.780;2023-04-08T04:33:14;102766.53;;;8.30;59.23
57827;BME280;43656;57.746;11.780;2023-04-08T04:35:39;102754.97;;;8.29;58.86
57827;BME280;43656;57.746;11.780;2023-04-08T04:38:05;102768.75;;;8.45;59.00
57827;BME280;43656;57.746;11.780;2023-04-08T04:40:35;102777.19;;;8.10;60.15
57827;BME280;43656;57.746;11.780;2023-04-08T04:43:01;102773.94;;;8.07;61.30
57827;BME280;43656;57.746;11.780;2023-04-08T04:45:26;102774.28;;;8.23;61.01
57827;BME280;43656;57.746;11.780;2023-04-08T04:47:52;102778.13;;;8.30;60.85
57827;BME280;43656;57.746;11.780;2023-04-08T04:50:17;102783.16;;;8.23;61.06
57827;BME280;43656;57.746;11.780;2023-04-08T04:52:43;102788.75;;;8.11;61.56
57827;BME280;43656;57.746;11.780;2023-04-08T04:55:08;102761.47;;;7.96;62.45
57827;BME280;43656;57.746;11.780;2023-04-08T04:57:34;102788.91;;;8.40;61.43
57827;BME280;43656;57.746;11.780;2023-04-08T05:00:00;102780.31;;;8.46;61.35
57827;BME280;43656;57.746;11.780;2023-04-08T05:02:25;102792.53;;;8.79;60.62
57827;BME280;43656;57.746;11.780;2023-04-08T05:04:51;102796.91;;;8.80;59.77
57827;BME280;43656;57.746;11.780;2023-04-08T05:07:18;102792.53;;;8.69;61.45
57827;BME280;43656;57.746;11.780;2023-04-08T05:09:43;102793.56;;;8.88;60.36
57827;BME280;43656;57.746;11.780;2023-04-08T05:12:09;102795.22;;;8.79;61.01
57827;BME280;43656;57.746;11.780;2023-04-08T05:14:34;102796.06;;;8.70;61.64
57827;BME280;43656;57.746;11.780;2023-04-08T05:17:00;102794.13;;;8.91;60.95
57827;BME280;43656;57.746;11.780;2023-04-08T05:19:25;102746.75;;;8.52;61.53
57827;BME280;43656;57.746;11.780;2023-04-08T05:21:51;102794.13;;;8.91;61.55
57827;BME280;43656;57.746;11.780;2023-04-08T05:24:16;102799.19;;;8.75;62.77
57827;BME280;43656;57.746;11.780;2023-04-08T05:26:41;102795.50;;;8.76;64.02
57827;BME280;43656;57.746;11.780;2023-04-08T05:29:07;102778.81;;;8.63;63.78
57827;BME280;43656;57.746;11.780;2023-04-08T05:31:32;102794.50;;;8.77;63.96
57827;BME280;43656;57.746;11.780;2023-04-08T05:33:57;102797.50;;;8.93;62.97
57827;BME280;43656;57.746;11.780;2023-04-08T05:36:23;102807.00;;;9.07;62.60
57827;BME280;43656;57.746;11.780;2023-04-08T05:38:48;102795.41;;;9.07;63.39
57827;BME280;43656;57.746;11.780;2023-04-08T05:41:14;102789.75;;;9.10;63.25
57827;BME280;43656;57.746;11.780;2023-04-08T05:43:39;102774.78;;;8.88;63.88
57827;BME280;43656;57.746;11.780;2023-04-08T05:46:06;102800.88;;;8.76;65.68
57827;BME280;43656;57.746;11.780;2023-04-08T05:48:32;102801.31;;;8.81;65.47
57827;BME280;43656;57.746;11.780;2023-04-08T05:50:57;102809.19;;;8.73;65.91
57827;BME280;43656;57.746;11.780;2023-04-08T05:53:23;102814.75;;;8.91;66.05
57827;BME280;43656;57.746;11.780;2023-04-08T05:55:49;102823.00;;;8.59;67.05
57827;BME280;43656;57.746;11.780;2023-04-08T05:58:15;102822.84;;;9.01;65.50
57827;BME280;43656;57.746;11.780;2023-04-08T06:00:40;102818.72;;;9.16;64.60
57827;BME280;43656;57.746;11.780;2023-04-08T06:03:05;102832.16;;;9.26;64.96
57827;BME280;43656;57.746;11.780;2023-04-08T06:05:31;102834.41;;;9.01;65.21
57827;BME280;43656;57.746;11.780;2023-04-08T06:07:57;102834.44;;;9.11;65.24
57827;BME280;43656;57.746;11.780;2023-04-08T06:10:22;102839.25;;;9.07;64.95
57827;BME280;43656;57.746;11.780;2023-04-08T06:12:47;102841.19;;;8.96;66.25
57827;BME280;43656;57.746;11.780;2023-04-08T06:15:13;102842.91;;;9.16;65.07
57827;BME280;43656;57.746;11.780;2023-04-08T06:17:38;102849.28;;;9.25;64.26
57827;BME280;43656;57.746;11.780;2023-04-08T06:20:07;102841.91;;;9.36;63.81
57827;BME280;43656;57.746;11.780;2023-04-08T06:22:36;102851.97;;;9.63;63.43
57827;BME280;43656;57.746;11.780;2023-04-08T06:25:02;102843.19;;;9.32;63.99
57827;BME280;43656;57.746;11.780;2023-04-08T06:27:27;102852.66;;;9.27;64.31
57827;BME280;43656;57.746;11.780;2023-04-08T06:29:53;102865.81;;;9.39;64.35
57827;BME280;43656;57.746;11.780;2023-04-08T06:32:19;102857.59;;;9.12;63.87
57827;BME280;43656;57.746;11.780;2023-04-08T06:34:46;102843.72;;;8.87;64.53
57827;BME280;43656;57.746;11.780;2023-04-08T06:37:11;102869.50;;;9.29;63.62
57827;BME280;43656;57.746;11.780;2023-04-08T06:39:37;102868.19;;;9.04;64.80
57827;BME280;43656;57.746;11.780;2023-04-08T06:42:02;102870.06;;;9.32;63.33
57827;BME280;43656;57.746;11.780;2023-04-08T06:44:27;102882.78;;;9.50;62.80
57827;BME280;43656;57.746;11.780;2023-04-08T06:46:53;102868.94;;;9.45;62.76
57827;BME280;43656;57.746;11.780;2023-04-08T06:49:18;102879.41;;;9.28;62.69
57827;BME280;43656;57.746;11.780;2023-04-08T06:51:44;102880.13;;;9.21;63.33
57827;BME280;43656;57.746;11.780;2023-04-08T06:54:09;102881.22;;;9.18;62.94
57827;BME280;43656;57.746;11.780;2023-04-08T06:56:35;102892.44;;;9.52;61.87
57827;BME280;43656;57.746;11.780;2023-04-08T06:59:01;102893.25;;;9.33;61.72
57827;BME280;43656;57.746;11.780;2023-04-08T07:01:27;102887.16;;;9.22;62.03
57827;BME280;43656;57.746;11.780;2023-04-08T07:03:52;102876.16;;;9.44;61.04
57827;BME280;43656;57.746;11.780;2023-04-08T07:06:18;102855.63;;;9.33;60.78
57827;BME280;43656;57.746;11.780;2023-04-08T07:08:43;102879.72;;;9.54;60.19
57827;BME280;43656;57.746;11.780;2023-04-08T07:11:08;102881.41;;;9.55;60.24
57827;BME280;43656;57.746;11.780;2023-04-08T07:13:34;102881.06;;;10.07;58.88
57827;BME280;43656;57.746;11.780;2023-04-08T07:15:59;102884.75;;;9.96;58.30
57827;BME280;43656;57.746;11.780;2023-04-08T07:18:25;102884.34;;;10.01;58.91
57827;BME280;43656;57.746;11.780;2023-04-08T07:20:52;102872.84;;;10.08;58.31
57827;BME280;43656;57.746;11.780;2023-04-08T07:23:18;102878.66;;;10.61;56.81
57827;BME280;43656;57.746;11.780;2023-04-08T07:25:44;102887.25;;;10.37;57.54
57827;BME280;43656;57.746;11.780;2023-04-08T07:28:09;102887.13;;;10.19;57.55
57827;BME280;43656;57.746;11.780;2023-04-08T07:30:35;102864.22;;;9.95;57.87
57827;BME280;43656;57.746;11.780;2023-04-08T07:33:00;102867.81;;;9.57;59.25
57827;BME280;43656;57.746;11.780;2023-04-08T07:35:27;102869.22;;;9.90;58.28
57827;BME280;43656;57.746;11.780;2023-04-08T07:37:52;102893.53;;;9.88;58.28
57827;BME280;43656;57.746;11.780;2023-04-08T07:40:19;102895.56;;;9.67;59.07
57827;BME280;43656;57.746;11.780;2023-04-08T07:42:45;102874.88;;;9.97;58.81
57827;BME280;43656;57.746;11.780;2023-04-08T07:45:10;102865.72;;;9.60;58.94
57827;BME280;43656;57.746;11.780;2023-04-08T07:47:36;102903.91;;;9.74;59.16
57827;BME280;43656;57.746;11.780;2023-04-08T07:50:02;102895.13;;;9.52;59.17
57827;BME280;43656;57.746;11.780;2023-04-08T07:52:29;102900.06;;;9.67;58.84
57827;BME280;43656;57.746;11.780;2023-04-08T07:54:54;102892.44;;;9.62;59.85
57827;BME280;43656;57.746;11.780;2023-04-08T07:57:20;102876.59;;;9.59;60.15
57827;BME280;43656;57.746;11.780;2023-04-08T07:59:45;102897.81;;;9.81;60.26
57827;BME280;43656;57.746;11.780;2023-04-08T08:02:11;102888.38;;;10.24;58.88
57827;BME280;43656;57.746;11.780;2023-04-08T08:04:36;102898.34;;;10.04;59.15
57827;BME280;43656;57.746;11.780;2023-04-08T08:07:02;102907.94;;;10.26;59.33
57827;BME280;43656;57.746;11.780;2023-04-08T08:09:27;102908.56;;;10.57;58.54
57827;BME280;43656;57.746;11.780;2023-04-08T08:11:53;102905.47;;;10.43;59.23
57827;BME280;43656;57.746;11.780;2023-04-08T08:14:18;102900.94;;;10.80;57.89
57827;BME280;43656;57.746;11.780;2023-04-08T08:16:43;102896.66;;;10.88;58.00
57827;BME280;43656;57.746;11.780;2023-04-08T08:19:09;102897.16;;;11.01;57.33
57827;BME280;43656;57.746;11.780;2023-04-08T08:21:36;102912.13;;;11.13;57.42
57827;BME280;43656;57.746;11.780;2023-04-08T08:24:02;102906.44;;;10.89;57.63
57827;BME280;43656;57.746;11.780;2023-04-08T08:26:27;102912.41;;;11.10;57.52
57827;BME280;43656;57.746;11.780;2023-04-08T08:28:53;102908.97;;;10.90;58.27
57827;BME280;43656;57.746;11.780;2023-04-08T08:31:18;102918.63;;;10.93;58.11
57827;BME280;43656;57.746;11.780;2023-04-08T08:33:44;102901.88;;;10.89;57.97
57827;BME280;43656;57.746;11.780;2023-04-08T08:36:10;102907.47;;;10.78;58.35
57827;BME280;43656;57.746;11.780;2023-04-08T08:38:36;102932.16;;;11.28;57.33
57827;BME280;43656;57.746;11.780;2023-04-08T08:41:01;102925.91;;;11.28;56.73
57827;BME280;43656;57.746;11.780;2023-04-08T08:43:28;102919.63;;;11.37;56.41
57827;BME280;43656;57.746;11.780;2023-04-08T08:45:54;102925.41;;;11.60;56.29
57827;BME280;43656;57.746;11.780;2023-04-08T08:48:19;102921.69;;;11.43;56.67
57827;BME280;43656;57.746;11.780;2023-04-08T08:50:45;102922.63;;;11.52;56.39
57827;BME280;43656;57.746;11.780;2023-04-08T08:53:11;102920.72;;;11.62;56.10
57827;BME280;43656;57.746;11.780;2023-04-08T08:55:37;102924.03;;;11.56;56.17
57827;BME280;43656;57.746;11.780;2023-04-08T08:58:04;102929.78;;;11.43;56.45
57827;BME280;43656;57.746;11.780;2023-04-08T09:08:27;102924.25;;;11.81;55.85
57827;BME280;43656;57.746;11.780;2023-04-08T09:10:54;102914.88;;;12.29;55.08
57827;BME280;43656;57.746;11.780;2023-04-08T09:13:23;102896.59;;;11.96;54.76
57827;BME280;43656;57.746;11.780;2023-04-08T09:16:24;102912.06;;;12.12;54.54
57827;BME280;43656;57.746;11.780;2023-04-08T09:18:50;102915.84;;;12.02;55.07
57827;BME280;43656;57.746;11.780;2023-04-08T09:21:17;102914.16;;;12.27;54.83
57827;BME280;43656;57.746;11.780;2023-04-08T09:23:50;102913.25;;;12.44;53.35
57827;BME280;43656;57.746;11.780;2023-04-08T09:26:17;102908.88;;;12.43;53.75
57827;BME280;43656;57.746;11.780;2023-04-08T09:29:05;102903.13;;;12.72;52.66
57827;BME280;43656;57.746;11.780;2023-04-08T09:31:36;102900.97;;;12.84;52.25
57827;BME280;43656;57.746;11.780;2023-04-08T09:34:16;102902.22;;;12.63;52.90
57827;BME280;43656;57.746;11.780;2023-04-08T09:36:43;102901.81;;;12.84;53.19
57827;BME280;43656;57.746;11.780;2023-04-08T09:39:10;102899.28;;;13.25;52.35
57827;BME280;43656;57.746;11.780;2023-04-08T09:41:37;102900.69;;;12.95;52.85
57827;BME280;43656;57.746;11.780;2023-04-08T09:44:08;102903.91;;;12.99;52.36
57827;BME280;43656;57.746;11.780;2023-04-08T09:52:23;102893.75;;;13.59;51.20
57827;BME280;43656;57.746;11.780;2023-04-08T09:54:54;102910.28;;;13.40;51.17
57827;BME280;43656;57.746;11.780;2023-04-08T09:57:40;102896.97;;;13.88;49.95
57827;BME280;43656;57.746;11.780;2023-04-08T10:02:35;102897.97;;;13.95;50.22
57827;BME280;43656;57.746;11.780;2023-04-08T10:05:06;102894.41;;;14.10;50.24
57827;BME280;43656;57.746;11.780;2023-04-08T10:07:33;102880.16;;;14.25;49.87
57827;BME280;43656;57.746;11.780;2023-04-08T10:10:00;102892.25;;;13.81;50.36
57827;BME280;43656;57.746;11.780;2023-04-08T10:12:26;102889.34;;;13.67;50.58
57827;BME280;43656;57.746;11.780;2023-04-08T10:23:08;102884.84;;;14.55;49.64
57827;BME280;43656;57.746;11.780;2023-04-08T10:30:50;102881.28;;;14.47;49.46
57827;BME280;43656;57.746;11.780;2023-04-08T10:38:40;102874.34;;;14.61;49.04
57827;BME280;43656;57.746;11.780;2023-04-08T10:41:07;102875.22;;;14.37;49.56
57827;BME280;43656;57.746;11.780;2023-04-08T10:43:33;102865.94;;;14.31;49.88
57827;BME280;43656;57.746;11.780;2023-04-08T10:45:59;102872.28;;;14.63;48.75
57827;BME280;43656;57.746;11.780;2023-04-08T10:48:24;102865.66;;;15.04;48.44
57827;BME280;43656;57.746;11.780;2023-04-08T10:53:28;102871.50;;;14.93;47.91
57827;BME280;43656;57.746;11.780;2023-04-08T10:56:13;102867.28;;;14.27;49.66
57827;BME280;43656;57.746;11.780;2023-04-08T10:58:47;102847.03;;;14.15;49.86
57827;BME280;43656;57.746;11.780;2023-04-08T11:01:13;102854.41;;;14.37;49.75
57827;BME280;43656;57.746;11.780;2023-04-08T11:03:38;102863.56;;;14.84;49.07
57827;BME280;43656;57.746;11.780;2023-04-08T11:06:04;102860.38;;;15.03;48.51
57827;BME280;43656;57.746;11.780;2023-04-08T11:08:34;102850.03;;;15.52;47.61
57827;BME280;43656;57.746;11.780;2023-04-08T11:11:01;102858.88;;;14.69;49.02
57827;BME280;43656;57.746;11.780;2023-04-08T11:13:28;102856.34;;;14.99;48.94
57827;BME280;43656;57.746;11.780;2023-04-08T11:15:58;102862.22;;;15.11;47.90
57827;BME280;43656;57.746;11.780;2023-04-08T11:18:24;102863.31;;;15.24;48.04
57827;BME280;43656;57.746;11.780;2023-04-08T11:20:51;102856.69;;;15.27;48.18
57827;BME280;43656;57.746;11.780;2023-04-08T11:23:17;102855.09;;;15.56;47.53
57827;BME280;43656;57.746;11.780;2023-04-08T11:25:44;102853.75;;;15.14;48.48
57827;BME280;43656;57.746;11.780;2023-04-08T11:28:10;102860.53;;;15.33;48.14
57827;BME280;43656;57.746;11.780;2023-04-08T11:30:37;102852.44;;;15.01;49.19
57827;BME280;43656;57.746;11.780;2023-04-08T11:33:04;102837.03;;;15.48;48.20
57827;BME280;43656;57.746;11.780;2023-04-08T11:35:30;102850.72;;;15.55;47.82
57827;BME280;43656;57.746;11.780;2023-04-08T11:37:56;102856.22;;;15.46;47.63
57827;BME280;43656;57.746;11.780;2023-04-08T11:40:22;102854.97;;;15.95;47.53
57827;BME280;43656;57.746;11.780;2023-04-08T11:42:49;102857.09;;;15.62;47.51
57827;BME280;43656;57.746;11.780;2023-04-08T11:45:16;102855.31;;;15.77;47.54
57827;BME280;43656;57.746;11.780;2023-04-08T11:47:43;102861.28;;;15.26;48.01
57827;BME280;43656;57.746;11.780;2023-04-08T11:50:09;102834.31;;;15.02;48.53
57827;BME280;43656;57.746;11.780;2023-04-08T11:52:48;102853.06;;;15.58;48.11
57827;BME280;43656;57.746;11.780;2023-04-08T11:55:25;102831.41;;;15.49;48.19
57827;BME280;43656;57.746;11.780;2023-04-08T11:57:51;102847.22;;;15.69;48.43
57827;BME280;43656;57.746;11.780;2023-04-08T12:00:18;102850.00;;;15.84;47.76
57827;BME280;43656;57.746;11.780;2023-04-08T12:02:44;102840.00;;;16.14;46.99
57827;BME280;43656;57.746;11.780;2023-04-08T12:05:10;102845.91;;;16.03;47.31
57827;BME280;43656;57.746;11.780;2023-04-08T12:07:36;102849.19;;;16.28;46.92
57827;BME280;43656;57.746;11.780;2023-04-08T12:10:01;102850.69;;;16.45;46.61
57827;BME280;43656;57.746;11.780;2023-04-08T12:12:27;102847.88;;;16.53;46.67
57827;BME280;43656;57.746;11.780;2023-04-08T12:14:52;102831.00;;;16.58;46.14
57827;BME280;43656;57.746;11.780;2023-04-08T12:17:18;102836.06;;;16.76;45.79
57827;BME280;43656;57.746;11.780;2023-04-08T12:19:43;102836.84;;;16.40;46.10
57827;BME280;43656;57.746;11.780;2023-04-08T12:22:09;102834.00;;;16.63;45.71
57827;BME280;43656;57.746;11.780;2023-04-08T12:24:34;102839.91;;;16.66;45.90
57827;BME280;43656;57.746;11.780;2023-04-08T12:26:59;102833.06;;;16.56;46.16
57827;BME280;43656;57.746;11.780;2023-04-08T12:29:26;102836.22;;;16.89;45.66
57827;BME280;43656;57.746;11.780;2023-04-08T12:31:52;102837.34;;;17.16;45.32
57827;BME280;43656;57.746;11.780;2023-04-08T12:34:17;102827.09;;;16.97;45.10
57827;BME280;43656;57.746;11.780;2023-04-08T12:36:43;102831.53;;;17.19;44.51
57827;BME280;43656;57.746;11.780;2023-04-08T12:39:08;102819.03;;;16.88;45.37
57827;BME280;43656;57.746;11.780;2023-04-08T12:41:34;102830.06;;;16.80;45.45
57827;BME280;43656;57.746;11.780;2023-04-08T12:43:59;102834.53;;;16.73;45.70
57827;BME280;43656;57.746;11.780;2023-04-08T12:46:25;102831.19;;;16.41;45.82
57827;BME280;43656;57.746;11.780;2023-04-08T12:48:50;102825.66;;;16.35;46.27
57827;BME280;43656;57.746;11.780;2023-04-08T12:51:16;102832.38;;;16.83;45.56
57827;BME280;43656;57.746;11.780;2023-04-08T12:53:42;102831.72;;;16.81;45.19
57827;BME280;43656;57.746;11.780;2023-04-08T12:56:07;102833.25;;;16.69;45.50
57827;BME280;43656;57.746;11.780;2023-04-08T12:58:33;102827.81;;;16.54;45.87
57827;BME280;43656;57.746;11.780;2023-04-08T13:00:58;102809.41;;;16.86;45.38
57827;BME280;43656;57.746;11.780;2023-04-08T13:03:24;102818.25;;;17.09;44.81
57827;BME280;43656;57.746;11.780;2023-04-08T13:05:49;102819.59;;;16.99;45.40
57827;BME280;43656;57.746;11.780;2023-04-08T13:08:15;102827.03;;;16.90;45.16
57827;BME280;43656;57.746;11.780;2023-04-08T13:10:41;102818.34;;;17.01;45.31
57827;BME280;43656;57.746;11.780;2023-04-08T13:13:07;102819.00;;;16.67;45.55
57827;BME280;43656;57.746;11.780;2023-04-08T13:15:33;102826.09;;;16.68;45.38
57827;BME280;43656;57.746;11.780;2023-04-08T13:17:58;102795.06;;;16.26;45.54
57827;BME280;43656;57.746;11.780;2023-04-08T13:20:24;102817.78;;;16.55;46.18
57827;BME280;43656;57.746;11.780;2023-04-08T13:22:53;102814.38;;;16.67;45.83
57827;BME280;43656;57.746;11.780;2023-04-08T13:25:18;102814.78;;;16.79;45.14